Terminal Aerodrome Forecast
Issued by NWS

Home | Current Version | Previous Version | Text Only | Print | Product List | Glossary On
Versions: 1 2 3 4 5 6 7 8 9 10 11 12 13 14 15 16 17 18 19 20 21 22 23 24 25 26 27 28
000
FTUS41 KRNK 020524
TAFBCB
TAF
KBCB 020524Z 0206/0306 00000KT P6SM SCT120
     FM020700 00000KT 3SM BR FEW060 BKN250
      TEMPO 0209/0212 1SM BR
     FM021330 00000KT P6SM SCT040 BKN070
     FM022100 28006KT P6SM VCTS BKN050CB
     FM030100 00000KT 4SM BR SCT120=

USA.gov is the U.S. government's official web portal to all federal, state and local government web resources and services.